Time;durP1;ratioP1;P1;durP2;ratioP2;P2;SDS_P1;SDS_P2;PMS_P1;PMS_P2;Temp;Humidity;BMP_temperature;BMP_pressure;BME280_temperature;BME280_humidity;BME280_pressure;Samples;Min_cycle;Max_cycle;Signal;HPM_P1;HPM_P2
2023/01/06 00:01:15;;;;;;;15.43;6.20;;;8.70;99.90;;;8.41;91.37;98553.47;5071512;28;20506;-73
2023/01/06 00:03:42;;;;;;;14.00;6.70;;;8.60;99.90;;;8.35;92.12;98557.72;5086369;28;20809;-75
2023/01/06 00:06:12;;;;;;;16.77;6.33;;;8.60;99.90;;;8.42;91.60;98542.50;5088778;28;20466;-72
2023/01/06 00:08:39;;;;;;;16.07;6.33;;;8.60;99.90;;;8.29;91.59;98531.56;5071314;28;20450;-74
2023/01/06 00:11:07;;;;;;;14.60;6.10;;;8.60;99.90;;;8.38;91.66;98546.59;5089126;28;20574;-74
2023/01/06 00:13:35;;;;;;;14.33;6.40;;;8.60;99.90;;;8.38;91.54;98527.72;5090610;28;20450;-75
2023/01/06 00:16:07;;;;;;;21.83;6.50;;;8.60;99.90;;;8.21;92.44;98546.78;5079540;28;20453;-75
2023/01/06 00:18:36;;;;;;;14.73;5.90;;;8.50;99.90;;;8.32;92.71;98542.78;5087194;28;20924;-74
2023/01/06 00:21:05;;;;;;;15.77;6.33;;;8.50;99.90;;;8.48;92.71;98530.97;5094844;28;20468;-77
2023/01/06 00:23:33;;;;;;;16.13;6.40;;;8.60;99.90;;;8.35;91.85;98525.44;5088039;28;20508;-73
2023/01/06 00:26:01;;;;;;;17.37;7.00;;;8.60;99.90;;;7.95;92.88;98471.94;5058771;28;20449;-75
2023/01/06 00:28:29;;;;;;;14.90;6.77;;;8.60;99.90;;;8.38;91.96;98529.59;5082973;28;20546;-76
2023/01/06 00:30:57;;;;;;;15.80;6.80;;;8.60;99.90;;;8.29;92.34;98512.72;5084385;28;20508;-77
2023/01/06 00:33:24;;;;;;;13.90;6.70;;;8.60;99.90;;;8.42;92.59;98515.59;5091191;28;20926;-75
2023/01/06 00:35:58;;;;;;;11.33;5.90;;;8.70;99.90;;;8.43;91.94;98505.63;5088081;28;20499;-75
2023/01/06 00:38:25;;;;;;;13.20;6.73;;;8.70;99.90;;;8.36;90.73;98479.47;5101975;28;20448;-74
2023/01/06 00:40:52;;;;;;;13.40;7.17;;;8.80;99.90;;;8.52;92.30;98517.16;5087788;28;20448;-75
2023/01/06 00:43:20;;;;;;;13.30;6.77;;;8.70;99.90;;;8.52;92.03;98522.53;5074175;28;20456;-78
2023/01/06 00:45:47;;;;;;;14.90;6.60;;;8.70;99.90;;;8.55;92.46;98520.31;5069414;28;20448;-77
2023/01/06 00:48:14;;;;;;;17.03;7.13;;;8.70;99.90;;;8.62;91.56;98520.38;5074433;28;20447;-74
2023/01/06 00:50:42;;;;;;;11.80;6.90;;;8.70;99.90;;;8.60;91.29;98514.34;5088678;28;20445;-74
2023/01/06 00:53:10;;;;;;;14.43;5.87;;;8.80;99.90;;;8.62;91.25;98521.19;5085545;28;20448;-77
2023/01/06 00:55:38;;;;;;;17.70;6.80;;;8.80;99.90;;;8.45;91.60;98509.81;5088489;28;20464;-74
2023/01/06 00:58:05;;;;;;;16.80;6.83;;;8.80;99.90;;;8.42;90.81;98488.66;5064429;28;20463;-76
2023/01/06 01:00:32;;;;;;;9.63;5.97;;;8.80;99.90;;;8.73;91.26;98522.59;5071040;28;20463;-73
2023/01/06 01:02:59;;;;;;;13.43;6.20;;;8.80;99.90;;;8.49;91.48;98516.47;5090183;28;21244;-75
2023/01/06 01:05:28;;;;;;;16.73;6.87;;;8.80;99.90;;;8.26;91.53;98461.94;5067902;28;20454;-74
2023/01/06 01:07:55;;;;;;;12.80;7.07;;;8.80;99.90;;;8.48;91.96;98495.97;5075258;28;20445;-74
2023/01/06 01:10:24;;;;;;;14.17;6.80;;;8.80;99.90;;;8.68;91.45;98516.09;5071371;28;20470;-76
2023/01/06 01:12:53;;;;;;;10.20;6.13;;;8.80;99.90;;;8.71;90.80;98513.84;5091727;28;20539;-76
2023/01/06 01:15:21;;;;;;;9.00;6.13;;;8.80;99.90;;;8.59;91.22;98504.59;5089826;28;20532;-77
2023/01/06 01:17:48;;;;;;;12.33;6.50;;;8.80;99.90;;;8.59;92.07;98499.22;5072542;28;20522;-75
2023/01/06 01:20:15;;;;;;;14.67;7.43;;;8.80;99.90;;;8.63;91.28;98509.41;5091142;28;20468;-80
2023/01/06 01:22:43;;;;;;;14.90;5.20;;;8.90;99.90;;;8.58;91.34;98519.91;5095004;28;20996;-75
2023/01/06 01:25:10;;;;;;;22.50;8.10;;;8.80;99.90;;;8.33;92.82;98516.72;5073284;28;20853;-75
2023/01/06 01:27:39;;;;;;;16.97;6.90;;;8.70;99.90;;;7.74;93.45;98437.72;5090046;28;20452;-80
2023/01/06 01:30:07;;;;;;;10.60;7.00;;;8.60;99.90;;;8.10;94.53;98506.88;5060579;28;20447;-80
2023/01/06 01:32:34;;;;;;;13.10;6.60;;;8.50;99.90;;;8.03;94.80;98496.03;5083651;28;20885;-75
2023/01/06 01:35:02;;;;;;;14.37;6.07;;;8.50;99.90;;;8.01;94.50;98497.25;5097279;28;20506;-75
2023/01/06 01:37:29;;;;;;;13.20;6.70;;;8.40;99.90;;;7.75;94.34;98461.75;5067205;28;20438;-75
2023/01/06 01:39:57;;;;;;;15.10;6.40;;;8.40;99.90;;;8.11;93.87;98486.22;5073569;28;20471;-79
2023/01/06 01:42:24;;;;;;;13.40;6.43;;;8.40;99.90;;;8.08;93.61;98485.56;5087987;28;20455;-79
2023/01/06 01:45:03;;;;;;;12.70;6.43;;;8.40;99.90;;;8.34;93.28;98504.91;5090266;28;20514;-76
2023/01/06 01:47:43;;;;;;;13.07;6.50;;;8.40;99.90;;;8.20;93.36;98520.91;5077008;28;20450;-77
2023/01/06 01:50:25;;;;;;;9.67;6.30;;;8.40;99.90;;;8.22;93.81;98509.97;5092377;28;20474;-74
2023/01/06 01:52:58;;;;;;;15.27;6.13;;;8.40;99.90;;;8.18;93.84;98500.56;5076247;28;20482;-81
2023/01/06 01:55:29;;;;;;;10.70;6.00;;;8.40;99.90;;;8.23;93.72;98507.06;5095911;28;20547;-74
2023/01/06 01:58:02;;;;;;;15.70;7.13;;;8.40;99.90;;;8.23;94.17;98506.25;5090896;28;20472;-76
2023/01/06 02:00:34;;;;;;;13.33;6.50;;;8.30;99.90;;;8.21;94.29;98492.97;5102856;28;20475;-77
2023/01/06 02:03:02;;;;;;;10.37;6.30;;;8.40;99.90;;;8.34;93.29;98481.53;5078021;28;20442;-75
2023/01/06 02:05:30;;;;;;;11.83;6.33;;;8.40;99.90;;;8.38;93.58;98492.72;5100356;28;20484;-79
2023/01/06 02:08:00;;;;;;;10.23;6.17;;;8.50;99.90;;;8.38;93.50;98490.03;5103687;28;20476;-77
2023/01/06 02:10:28;;;;;;;10.77;5.93;;;8.50;99.90;;;8.34;93.67;98486.91;5109688;28;20498;-77
2023/01/06 02:12:58;;;;;;;12.83;6.30;;;8.50;99.90;;;8.44;93.11;98492.00;5086431;28;20450;-74
2023/01/06 02:15:28;;;;;;;10.53;6.23;;;8.50;99.90;;;8.40;92.68;98471.84;5077061;28;20974;-75
2023/01/06 02:18:38;;;;;;;16.83;6.00;;;8.50;99.90;;;8.40;92.28;98471.84;5094902;28;20461;-75
2023/01/06 02:21:42;;;;;;;14.93;6.60;;;8.60;99.90;;;8.42;93.52;98487.81;5083171;28;20540;-76
2023/01/06 02:24:44;;;;;;;8.37;6.50;;;8.50;99.90;;;8.43;93.77;98476.00;5087968;28;20837;-75
2023/01/06 02:28:18;;;;;;;13.53;7.13;;;8.60;99.90;;;8.44;93.88;98478.53;5091629;28;20518;-74
2023/01/06 02:31:31;;;;;;;11.73;5.77;;;8.60;99.90;;;8.29;95.30;98480.44;5050767;28;20520;-73
2023/01/06 02:34:11;;;;;;;9.13;6.00;;;8.50;99.90;;;8.25;95.11;98476.41;5088954;28;20444;-75
2023/01/06 02:36:48;;;;;;;10.77;6.60;;;8.50;99.90;;;8.29;94.18;98450.81;5082307;28;20546;-78
2023/01/06 02:39:27;;;;;;;15.40;6.57;;;8.50;99.90;;;8.42;93.99;98467.13;5071027;28;20474;-75
2023/01/06 02:42:07;;;;;;;11.33;6.33;;;8.60;99.90;;;8.45;94.79;98458.66;5090184;28;20442;-75
2023/01/06 02:44:46;;;;;;;15.73;6.43;;;8.60;99.90;;;8.49;94.18;98456.38;5067430;28;20440;-76
2023/01/06 02:47:19;;;;;;;12.10;6.80;;;8.60;99.90;;;8.54;93.82;98447.78;5069651;28;21037;-76
2023/01/06 02:49:55;;;;;;;11.93;6.70;;;8.60;99.90;;;8.58;94.44;98455.28;5074514;28;20512;-75
2023/01/06 02:52:31;;;;;;;12.10;6.50;;;8.60;99.90;;;8.58;93.60;98459.84;5067967;28;20449;-74
2023/01/06 02:55:05;;;;;;;10.17;6.30;;;8.60;99.90;;;8.52;94.33;98447.13;5088278;28;20461;-75
2023/01/06 02:57:39;;;;;;;9.10;6.40;;;8.60;99.90;;;8.42;94.21;98456.34;5085968;28;20464;-75
2023/01/06 03:00:13;;;;;;;14.20;5.90;;;8.60;99.90;;;8.39;94.53;98431.66;5070249;28;20986;-76
2023/01/06 03:02:47;;;;;;;12.43;6.20;;;8.60;99.90;;;8.57;94.19;98460.84;5087903;28;20491;-74
2023/01/06 03:05:17;;;;;;;10.70;6.97;;;8.60;99.90;;;8.60;94.24;98458.63;5069472;28;20510;-79
2023/01/06 03:07:47;;;;;;;12.77;7.03;;;8.60;99.90;;;8.65;94.39;98455.34;5072366;28;21159;-77
2023/01/06 03:10:17;;;;;;;12.50;6.77;;;8.70;99.90;;;8.66;93.73;98450.81;5087389;28;20457;-74
2023/01/06 03:12:52;;;;;;;12.50;6.40;;;8.70;99.90;;;8.57;93.94;98442.00;5092517;28;20507;-75
2023/01/06 03:15:21;;;;;;;10.40;6.40;;;8.70;99.90;;;8.63;94.59;98444.75;5086666;28;20458;-76
2023/01/06 03:17:49;;;;;;;19.83;7.20;;;8.70;99.90;;;8.68;95.03;98449.56;5065582;28;20505;-75
2023/01/06 03:20:17;;;;;;;8.00;6.33;;;8.70;99.90;;;8.71;94.64;98454.56;5067890;28;20476;-75
2023/01/06 03:22:44;;;;;;;8.63;6.30;;;8.70;99.90;;;8.70;94.47;98452.91;5088378;28;20465;-79
2023/01/06 03:25:12;;;;;;;14.00;6.87;;;8.70;99.90;;;8.71;94.37;98454.56;5072266;28;20458;-75
2023/01/06 03:27:40;;;;;;;10.30;6.03;;;8.80;99.90;;;8.66;94.23;98446.25;5071373;28;20932;-76
2023/01/06 03:30:11;;;;;;;13.33;6.80;;;8.80;99.90;;;8.88;94.44;98446.25;5086618;28;20925;-74
2023/01/06 03:32:51;;;;;;;12.30;6.67;;;8.80;99.90;;;8.77;94.23;98434.09;5089414;28;20934;-75
2023/01/06 03:35:35;;;;;;;8.60;6.37;;;8.90;99.90;;;8.91;93.83;98443.97;5082273;28;20528;-75
2023/01/06 03:38:15;;;;;;;11.23;6.17;;;8.90;99.90;;;9.03;93.65;98447.00;5071709;28;20483;-75
2023/01/06 03:40:53;;;;;;;8.27;6.33;;;9.00;99.90;;;9.10;93.09;98435.41;5087169;28;20525;-76
2023/01/06 03:43:27;;;;;;;9.97;6.20;;;9.10;99.90;;;9.09;92.44;98437.28;5093059;28;20908;-76
2023/01/06 03:46:07;;;;;;;8.30;6.40;;;9.10;99.90;;;8.41;93.47;98352.31;5069745;28;20451;-73
2023/01/06 03:48:52;;;;;;;9.73;5.67;;;9.10;99.90;;;9.02;94.23;98448.03;5093114;28;20458;-74
2023/01/06 03:51:37;;;;;;;8.93;6.83;;;9.10;99.90;;;9.04;94.28;98440.56;5082883;28;20517;-73
2023/01/06 03:54:09;;;;;;;6.97;5.73;;;9.10;99.90;;;9.14;94.21;98447.47;5063182;28;20447;-75
2023/01/06 03:56:42;;;;;;;11.00;6.40;;;9.10;99.90;;;9.11;92.94;98442.47;5092238;28;20524;-75
2023/01/06 03:59:14;;;;;;;12.37;5.67;;;9.10;99.90;;;9.15;93.63;98439.19;5062468;28;20460;-74
2023/01/06 04:01:42;;;;;;;8.40;5.73;;;9.10;99.90;;;9.19;93.22;98431.56;5087676;28;20440;-76
2023/01/06 04:04:11;;;;;;;8.90;6.17;;;9.20;99.90;;;9.16;93.61;98430.09;5087428;28;20459;-78
2023/01/06 04:06:39;;;;;;;6.00;5.40;;;9.30;99.90;;;9.03;93.22;98409.25;5091717;28;20449;-74
2023/01/06 04:09:06;;;;;;;6.83;5.73;;;9.30;99.90;;;9.13;93.27;98405.38;5086093;28;20456;-78
2023/01/06 04:14:18;;;;;;;8.40;6.60;;;9.30;99.90;;;9.24;93.18;98423.72;5067843;28;20456;-77
2023/01/06 04:16:45;;;;;;;6.30;5.70;;;9.30;99.90;;;9.29;93.07;98423.13;5066331;28;20461;-76
2023/01/06 04:19:14;;;;;;;6.97;6.10;;;9.20;99.90;;;9.04;93.36;98402.84;5087792;28;20492;-72
2023/01/06 04:21:41;;;;;;;8.67;6.50;;;9.20;99.90;;;9.21;92.94;98407.94;5089254;28;20487;-75
2023/01/06 04:24:08;;;;;;;8.50;6.50;;;9.20;99.90;;;9.18;92.88;98398.38;5074151;28;20450;-75
2023/01/06 04:26:36;;;;;;;10.47;7.27;;;9.20;99.90;;;9.22;93.48;98401.50;5086864;28;20467;-73
2023/01/06 04:29:03;;;;;;;11.80;7.77;;;9.20;99.90;;;9.20;93.08;98398.19;5094567;28;20494;-75
2023/01/06 04:31:30;;;;;;;9.23;7.67;;;9.20;99.90;;;8.91;93.01;98346.16;5086563;28;20441;-75
2023/01/06 04:33:58;;;;;;;7.60;6.90;;;9.20;99.90;;;8.84;93.09;98335.31;5090670;28;20909;-78
2023/01/06 04:36:26;;;;;;;8.30;6.73;;;9.20;99.90;;;9.31;93.02;98405.69;5090102;28;20586;-72
2023/01/06 04:38:53;;;;;;;9.47;6.60;;;9.30;99.90;;;9.43;92.56;98386.28;5091830;28;20632;-77
2023/01/06 04:41:21;;;;;;;7.83;6.50;;;9.30;99.90;;;9.39;92.84;98393.91;5093447;28;21042;-74
2023/01/06 04:43:49;;;;;;;8.17;6.43;;;9.40;99.90;;;9.26;92.68;98386.59;5093178;28;20470;-76
2023/01/06 04:46:16;;;;;;;8.67;6.30;;;9.40;99.90;;;9.25;93.05;98384.94;5088233;28;21500;-75
2023/01/06 04:48:43;;;;;;;8.37;7.10;;;9.40;99.90;;;9.20;92.91;98392.78;5089766;28;20451;-73
2023/01/06 04:51:11;;;;;;;7.67;6.87;;;9.30;99.90;;;9.28;93.52;98398.00;5075700;28;20444;-75
2023/01/06 04:53:41;;;;;;;8.53;6.77;;;9.30;99.90;;;9.34;92.43;98389.16;5090663;28;20469;-81
2023/01/06 04:56:11;;;;;;;8.50;6.80;;;9.30;99.90;;;9.26;92.01;98375.81;5091173;28;20547;-75
2023/01/06 04:58:39;;;;;;;11.30;9.40;;;9.30;99.90;;;9.20;92.84;98392.78;5069413;28;20460;-75
2023/01/06 05:01:08;;;;;;;9.07;8.10;;;9.20;99.90;;;9.21;92.60;98394.44;5076291;28;20528;-73
2023/01/06 05:03:36;;;;;;;8.93;7.20;;;9.20;99.90;;;9.21;92.62;98389.06;5090127;28;20451;-73
2023/01/06 05:06:08;;;;;;;9.00;7.37;;;9.20;99.90;;;9.27;92.86;98398.22;5092501;28;20451;-75
2023/01/06 05:08:36;;;;;;;8.47;6.83;;;9.20;99.90;;;9.18;92.84;98394.84;5086604;28;20455;-76
2023/01/06 05:11:07;;;;;;;7.97;6.40;;;9.20;99.90;;;9.36;92.09;98391.63;5078510;28;20479;-74
2023/01/06 05:13:35;;;;;;;7.33;6.63;;;9.30;99.90;;;9.24;92.61;98388.66;5079520;28;20526;-74
2023/01/06 05:16:07;;;;;;;7.20;6.50;;;9.30;99.90;;;9.15;92.47;98374.50;5101759;28;20488;-78
2023/01/06 05:18:34;;;;;;;7.07;5.90;;;9.30;99.90;;;9.14;92.49;98389.00;5066724;28;20462;-75
2023/01/06 05:21:02;;;;;;;9.53;5.80;;;9.30;99.90;;;9.25;92.80;98384.09;5094741;28;20472;-75
2023/01/06 05:23:29;;;;;;;6.30;5.50;;;9.30;99.90;;;8.95;92.81;98342.03;5055377;28;20454;-74
2023/01/06 05:25:56;;;;;;;6.53;5.67;;;9.30;99.90;;;9.13;93.59;98387.34;5071578;28;20479;-78
2023/01/06 05:28:25;;;;;;;5.93;5.43;;;9.30;99.90;;;9.15;93.96;98379.91;5073621;28;20450;-76
2023/01/06 05:30:52;;;;;;;6.90;6.07;;;9.20;99.90;;;9.16;93.42;98370.78;5071860;28;20512;-73
2023/01/06 05:33:20;;;;;;;6.93;6.00;;;9.20;99.90;;;9.06;93.29;98344.16;5073075;28;20432;-73
2023/01/06 05:35:47;;;;;;;6.63;5.13;;;9.20;99.90;;;9.16;93.02;98364.53;5070629;28;20448;-73
2023/01/06 05:38:14;;;;;;;8.27;5.77;;;9.20;99.90;;;9.18;93.48;98368.72;5073164;28;21108;-74
2023/01/06 05:40:41;;;;;;;5.40;4.90;;;9.20;99.90;;;9.14;93.15;98367.44;5072818;28;20471;-74
2023/01/06 05:43:08;;;;;;;8.37;6.20;;;9.20;99.90;;;9.17;93.49;98360.81;5088425;28;20935;-75
2023/01/06 05:45:38;;;;;;;7.83;6.00;;;9.20;99.90;;;9.26;92.66;98373.09;5089012;28;20463;-74
2023/01/06 05:48:06;;;;;;;6.80;5.80;;;9.20;99.90;;;9.29;92.96;98364.63;5089603;28;20455;-74
2023/01/06 05:50:33;;;;;;;5.37;4.97;;;9.20;99.90;;;9.32;93.20;98368.78;5078545;28;20453;-73
2023/01/06 05:53:00;;;;;;;7.03;5.40;;;9.20;99.90;;;9.24;92.93;98366.25;5091023;28;20526;-75
2023/01/06 05:55:28;;;;;;;5.53;5.00;;;9.30;99.90;;;9.34;92.33;98364.88;5066450;28;20508;-76
2023/01/06 05:57:55;;;;;;;6.30;4.93;;;9.30;99.90;;;9.32;92.42;98363.41;5087438;28;20479;-75
2023/01/06 06:00:22;;;;;;;6.10;5.57;;;9.40;99.90;;;9.23;92.87;98357.34;5089017;28;20569;-76
2023/01/06 06:02:51;;;;;;;6.13;4.70;;;9.30;99.90;;;9.33;92.43;98365.91;5089730;28;20459;-78
2023/01/06 06:05:18;;;;;;;5.23;4.47;;;9.30;99.90;;;9.27;92.43;98350.50;5074281;28;20455;-76
2023/01/06 06:07:47;;;;;;;5.10;4.60;;;9.30;99.90;;;9.41;91.54;98355.97;5097334;28;20738;-77
2023/01/06 06:10:15;;;;;;;4.50;4.10;;;9.40;99.90;;;9.18;91.90;98335.53;5076428;28;20459;-75
2023/01/06 06:12:42;;;;;;;5.30;4.40;;;9.40;99.90;;;9.44;91.79;98359.13;5082066;28;20462;-78
2023/01/06 06:15:09;;;;;;;4.67;4.00;;;9.50;99.90;;;9.39;91.01;98336.47;5061968;28;20481;-73
2023/01/06 06:17:37;;;;;;;5.07;4.57;;;9.50;99.90;;;9.27;91.08;98318.16;5068769;28;20481;-77
2023/01/06 06:20:07;;;;;;;4.60;3.93;;;9.50;99.90;;;9.43;91.84;98360.16;5086064;28;20454;-74
2023/01/06 06:22:34;;;;;;;3.87;3.53;;;9.50;99.90;;;9.51;90.72;98361.84;5090558;28;20460;-75
2023/01/06 06:25:02;;;;;;;3.93;3.30;;;9.50;99.90;;;9.46;90.77;98358.91;5090514;28;20505;-79
2023/01/06 06:27:29;;;;;;;3.60;3.30;;;9.60;99.90;;;9.47;90.90;98371.34;5071148;28;20456;-76
2023/01/06 06:29:56;;;;;;;5.03;3.80;;;9.60;99.90;;;9.40;91.40;98370.50;5084049;28;20543;-76
2023/01/06 06:32:23;;;;;;;4.17;3.67;;;9.60;99.90;;;9.39;91.50;98374.22;5072111;28;20459;-77
2023/01/06 06:34:50;;;;;;;3.57;3.27;;;9.50;99.90;;;9.40;91.32;98370.50;5092789;28;20538;-76
2023/01/06 06:37:19;;;;;;;3.43;3.13;;;9.50;99.90;;;9.41;91.43;98374.84;5103532;28;20747;-75
2023/01/06 06:39:46;;;;;;;2.90;2.70;;;9.50;99.90;;;9.33;91.62;98360.50;5065829;28;20959;-77
2023/01/06 06:42:13;;;;;;;3.30;2.97;;;9.50;99.90;;;9.43;90.96;98364.69;5086113;28;20473;-76
2023/01/06 06:44:40;;;;;;;3.27;2.97;;;9.50;99.90;;;9.40;90.88;98365.09;5084136;28;20453;-75
2023/01/06 06:47:07;;;;;;;3.10;2.90;;;9.50;99.90;;;9.43;90.09;98360.16;5087972;28;20461;-77
2023/01/06 06:49:40;;;;;;;3.00;2.70;;;9.60;99.90;;;9.38;90.32;98356.38;5086817;28;20943;-77
2023/01/06 06:52:07;;;;;;;4.30;3.90;;;9.60;99.90;;;9.48;90.07;98373.84;5081580;28;20550;-75
2023/01/06 06:54:36;;;;;;;5.20;3.97;;;9.60;99.90;;;9.55;89.91;98381.97;5082963;28;20457;-84
2023/01/06 06:57:03;;;;;;;3.97;3.07;;;9.60;99.90;;;9.37;89.83;98370.91;5079591;28;20457;-82
2023/01/06 06:59:30;;;;;;;5.00;4.10;;;9.60;99.90;;;9.46;89.42;98377.78;5075929;28;20450;-73
2023/01/06 07:01:58;;;;;;;3.50;3.10;;;9.60;99.90;;;9.46;90.28;98380.47;5089351;28;20476;-72
2023/01/06 07:04:25;;;;;;;3.80;2.80;;;9.60;99.90;;;9.47;89.42;98382.97;5079423;28;20453;-72
2023/01/06 07:06:52;;;;;;;2.97;2.77;;;9.60;99.90;;;9.40;89.40;98381.28;5083530;28;20466;-72
2023/01/06 07:09:19;;;;;;;3.77;2.80;;;9.60;99.90;;;9.42;90.01;98390.00;5073010;28;20446;-73
2023/01/06 07:11:48;;;;;;;2.53;2.33;;;9.60;99.90;;;9.49;89.41;98393.59;5070690;28;20502;-72
2023/01/06 07:14:15;;;;;;;2.57;2.37;;;9.60;99.90;;;9.35;90.26;98404.28;5074056;28;20483;-72
2023/01/06 07:16:42;;;;;;;2.77;2.57;;;9.60;99.90;;;9.57;88.01;98393.41;5085353;28;20461;-71
2023/01/06 07:19:09;;;;;;;2.80;2.60;;;9.70;99.90;;;9.51;88.95;98399.59;5087867;28;20446;-72
2023/01/06 07:21:37;;;;;;;2.33;2.13;;;9.70;99.80;;;9.62;88.47;98396.31;5078032;28;20472;-72
2023/01/06 07:24:05;;;;;;;2.77;2.57;;;9.80;98.50;;;9.52;88.51;98406.66;5065186;28;20446;-73
2023/01/06 07:26:32;;;;;;;3.13;2.10;;;9.80;98.10;;;9.57;87.68;98406.06;5081639;28;20513;-73
2023/01/06 07:29:01;;;;;;;3.10;2.90;;;9.80;98.20;;;9.68;88.16;98408.19;5084811;28;20453;-75
2023/01/06 07:31:28;;;;;;;2.33;2.20;;;9.80;98.40;;;9.69;87.10;98406.34;5090104;28;20472;-74
2023/01/06 07:33:55;;;;;;;2.50;2.30;;;9.80;97.70;;;9.77;86.82;98404.28;5076432;28;20465;-74
2023/01/06 07:36:22;;;;;;;2.60;2.40;;;9.90;97.40;;;9.75;86.54;98406.38;5087830;28;20483;-74
2023/01/06 07:38:49;;;;;;;3.00;2.80;;;9.90;97.50;;;9.83;86.12;98416.16;5087676;28;20458;-74
2023/01/06 07:41:17;;;;;;;3.20;2.37;;;9.90;97.30;;;9.82;86.18;98417.19;5082817;28;20547;-75
2023/01/06 07:43:44;;;;;;;5.23;2.73;;;9.90;97.10;;;9.82;86.43;98417.19;5081910;28;20961;-76
2023/01/06 07:46:12;;;;;;;2.07;1.97;;;9.90;97.00;;;9.91;86.36;98409.75;5081684;28;20947;-74
2023/01/06 07:48:39;;;;;;;2.60;2.40;;;10.00;96.20;;;9.75;86.18;98411.75;5068376;28;20445;-74
2023/01/06 07:51:06;;;;;;;2.50;2.30;;;10.00;96.00;;;9.97;85.84;98410.81;5070640;28;20871;-73
2023/01/06 07:53:33;;;;;;;2.50;2.30;;;10.00;95.70;;;9.87;85.37;98414.72;5082833;28;20459;-75
2023/01/06 07:56:01;;;;;;;2.10;1.90;;;10.00;95.60;;;10.04;84.68;98408.97;5067337;28;20953;-73
2023/01/06 07:58:28;;;;;;;2.83;2.50;;;10.20;94.60;;;10.01;85.00;98420.16;5055535;28;20489;-74
2023/01/06 08:00:55;;;;;;;2.60;2.13;;;10.20;94.60;;;9.96;84.65;98411.84;5081625;28;20520;-73
2023/01/06 08:03:24;;;;;;;2.80;2.40;;;10.10;94.70;;;10.03;85.19;98407.28;5059954;28;20532;-75
2023/01/06 08:05:51;;;;;;;2.10;2.00;;;10.10;94.90;;;10.06;84.33;98409.59;5057402;28;20504;-75
2023/01/06 08:08:18;;;;;;;2.77;2.40;;;10.20;94.50;;;10.08;84.19;98412.91;5085970;28;20454;-74
2023/01/06 08:10:45;;;;;;;3.20;2.50;;;10.20;94.10;;;10.25;83.61;98404.47;5075364;28;20493;-75
2023/01/06 08:13:12;;;;;;;2.60;2.40;;;10.30;94.20;;;10.07;84.11;98413.94;5083465;28;20470;-74
2023/01/06 08:15:40;;;;;;;2.00;1.77;;;10.30;93.90;;;10.39;83.33;98399.91;5089092;28;20910;-74
2023/01/06 08:18:08;;;;;;;3.00;2.50;;;10.40;93.70;;;10.23;83.92;98404.66;5072749;28;20455;-74
2023/01/06 08:20:37;;;;;;;3.40;2.40;;;10.40;93.70;;;10.42;83.16;98404.94;5083544;28;20456;-74
2023/01/06 08:23:04;;;;;;;3.80;2.50;;;10.40;93.80;;;10.23;83.04;98369.56;5080409;28;20473;-73
2023/01/06 08:25:31;;;;;;;3.20;2.83;;;10.50;93.70;;;10.58;82.66;98411.84;5078190;28;20518;-72
2023/01/06 08:27:59;;;;;;;3.20;2.90;;;10.60;93.80;;;10.51;82.67;98414.53;5086520;28;20460;-72
2023/01/06 08:30:27;;;;;;;3.10;2.70;;;10.60;93.20;;;10.66;82.53;98408.91;5079926;28;20548;-70
2023/01/06 08:32:57;;;;;;;3.00;2.80;;;10.70;93.30;;;10.47;82.77;98414.09;5079139;28;20490;-73
2023/01/06 08:35:24;;;;;;;2.07;1.87;;;10.70;92.50;;;10.67;81.56;98413.28;5085481;28;20451;-72
2023/01/06 08:37:53;;;;;;;8.17;2.80;;;10.70;92.70;;;10.75;81.48;98410.38;5087946;28;20449;-74
2023/01/06 08:40:20;;;;;;;2.37;2.17;;;10.80;92.60;;;10.50;82.40;98402.06;5087315;28;20572;-72
2023/01/06 08:42:48;;;;;;;2.50;2.30;;;10.70;92.70;;;10.48;83.29;98402.25;5082218;28;20565;-72
2023/01/06 08:45:15;;;;;;;2.50;2.30;;;10.60;93.00;;;10.46;83.34;98396.22;5065408;28;20546;-72
2023/01/06 08:47:42;;;;;;;2.00;1.87;;;10.70;93.20;;;10.46;82.59;98396.22;5063871;28;20585;-74
2023/01/06 08:50:09;;;;;;;2.50;2.27;;;10.70;93.00;;;10.43;83.30;98399.34;5064202;28;20879;-72
2023/01/06 08:52:36;;;;;;;2.53;2.17;;;10.60;93.30;;;10.79;81.72;98409.97;5058269;28;20501;-73
2023/01/06 08:55:05;;;;;;;2.60;2.40;;;10.80;92.60;;;10.93;81.26;98419.75;5074368;28;20547;-72
2023/01/06 08:57:34;;;;;;;4.00;2.83;;;10.90;92.30;;;10.93;81.25;98410.81;5084957;28;20824;-71
2023/01/06 09:00:01;;;;;;;2.63;2.43;;;11.00;92.40;;;10.93;81.72;98413.53;5063016;28;20534;-71
2023/01/06 09:02:30;;;;;;;4.63;2.60;;;11.00;92.50;;;10.65;81.32;98380.22;5078016;28;20474;-73
2023/01/06 09:04:57;;;;;;;2.50;2.30;;;11.00;92.10;;;11.09;80.15;98409.56;5073473;28;20486;-70
2023/01/06 09:07:26;;;;;;;2.67;2.30;;;11.10;91.90;;;10.83;79.47;98374.22;5070620;28;20454;-73
2023/01/06 09:09:53;;;;;;;2.30;1.93;;;11.20;91.30;;;10.99;80.28;98431.59;5062809;28;20850;-73
2023/01/06 09:12:22;;;;;;;2.40;2.20;;;11.20;91.10;;;11.12;79.83;98436.16;5081907;28;20466;-72
2023/01/06 09:14:49;;;;;;;3.53;2.73;;;11.20;91.20;;;11.00;81.11;98434.13;5057017;28;20847;-72
2023/01/06 09:17:16;;;;;;;2.60;2.40;;;11.10;91.70;;;11.25;80.26;98446.16;5070372;28;20452;-71
2023/01/06 09:19:44;;;;;;;3.33;3.03;;;11.20;91.70;;;11.29;79.83;98442.00;5072500;28;20870;-74
2023/01/06 09:22:11;;;;;;;2.60;2.40;;;11.40;91.40;;;11.33;79.50;98433.25;5086814;28;20477;-77
2023/01/06 09:24:38;;;;;;;3.60;2.40;;;11.40;91.10;;;11.36;78.95;98442.81;5067598;28;20503;-71
2023/01/06 09:27:05;;;;;;;2.90;2.70;;;11.40;90.90;;;11.10;78.62;98386.88;5064540;28;21035;-72
2023/01/06 09:29:34;;;;;;;2.73;2.53;;;11.50;90.90;;;11.53;78.96;98450.50;5087582;28;20452;-71
2023/01/06 09:32:02;;;;;;;2.40;2.10;;;11.60;90.70;;;11.52;78.59;98456.94;5080248;28;20498;-71
2023/01/06 09:34:29;;;;;;;2.43;2.23;;;11.60;90.50;;;11.22;79.75;98458.22;5079512;28;20615;-72
2023/01/06 09:36:56;;;;;;;2.20;2.00;;;11.50;90.70;;;11.04;80.68;98450.72;5084648;28;20452;-72
2023/01/06 09:39:23;;;;;;;3.03;2.00;;;11.40;91.20;;;10.85;81.91;98445.13;5086271;28;20464;-72
2023/01/06 09:42:23;;;;;;;2.40;2.20;;;11.20;92.50;;;10.90;82.66;98471.53;5084170;28;20481;-72
2023/01/06 09:44:57;;;;;;;1.87;1.70;;;11.10;93.30;;;10.80;82.53;98473.78;5062846;28;20452;-72
2023/01/06 09:47:30;;;;;;;1.60;1.50;;;11.00;93.00;;;10.88;81.46;98473.63;5080434;28;20450;-72
2023/01/06 09:50:03;;;;;;;1.90;1.70;;;11.00;92.30;;;10.67;81.59;98461.91;5076390;28;20453;-72
2023/01/06 09:52:38;;;;;;;5.63;2.20;;;11.00;91.50;;;10.82;80.77;98469.00;5070397;28;20505;-71
2023/01/06 09:55:14;;;;;;;1.60;1.50;;;11.00;91.50;;;11.09;79.14;98453.66;5086621;28;20469;-74
2023/01/06 09:57:45;;;;;;;5.57;3.73;;;11.20;90.80;;;11.13;78.71;98454.06;5075974;28;20470;-73
2023/01/06 10:00:36;;;;;;;2.70;1.80;;;11.30;90.00;;;11.49;77.59;98452.78;5076305;28;20541;-71
2023/01/06 10:03:05;;;;;;;1.93;1.57;;;11.50;90.00;;;11.73;76.45;98455.84;5084549;28;20658;-73
2023/01/06 10:05:43;;;;;;;2.50;1.40;;;11.70;88.80;;;11.70;76.09;98458.97;5078177;28;20450;-71
2023/01/06 10:08:21;;;;;;;2.30;1.50;;;11.90;87.80;;;11.39;76.92;98457.78;5088360;28;20458;-71
2023/01/06 10:11:05;;;;;;;1.63;1.53;;;11.70;87.80;;;11.46;76.54;98447.81;5084353;28;20480;-71
2023/01/06 10:13:47;;;;;;;1.93;1.57;;;11.70;87.60;;;11.73;75.51;98436.91;5069367;28;20450;-72
2023/01/06 10:16:31;;;;;;;2.40;1.37;;;11.80;87.60;;;11.98;74.96;98439.75;5082470;28;20511;-72
2023/01/06 10:19:12;;;;;;;1.90;1.47;;;12.00;87.60;;;11.94;74.24;98433.09;5085169;28;20459;-72
2023/01/06 10:21:48;;;;;;;1.90;1.70;;;12.00;86.80;;;11.73;75.48;98429.63;5086133;28;20503;-72
2023/01/06 10:24:33;;;;;;;1.70;1.60;;;11.90;86.90;;;11.87;74.19;98427.69;5079948;28;21000;-72
2023/01/06 10:27:17;;;;;;;3.00;1.60;;;11.90;86.30;;;11.83;74.09;98425.63;5067274;28;20440;-72
2023/01/06 10:29:44;;;;;;;1.47;1.27;;;11.90;86.30;;;11.66;74.39;98419.88;5078084;28;20453;-69
2023/01/06 10:32:17;;;;;;;1.70;1.43;;;11.90;86.30;;;11.76;73.24;98414.84;5089516;28;21050;-69
2023/01/06 10:34:46;;;;;;;1.67;1.50;;;11.90;85.30;;;11.90;72.65;98416.47;5082518;28;20901;-68
2023/01/06 10:37:21;;;;;;;1.37;1.27;;;12.00;85.40;;;11.83;73.00;98412.94;5088333;28;20487;-69
2023/01/06 10:39:54;;;;;;;1.60;1.50;;;12.00;85.10;;;12.02;72.24;98407.66;5083074;28;20463;-71
2023/01/06 10:45:16;;;;;;;1.17;1.07;;;12.20;84.30;;;11.43;73.71;98400.34;5079161;28;20454;-70
2023/01/06 10:47:45;;;;;;;2.30;1.90;;;11.80;84.50;;;11.83;72.33;98404.81;5090829;28;20533;-70